sensor_id;sensor_type;location;lat;lon;timestamp;P1;durP1;ratioP1;P2;durP2;ratioP2
2173;SDS011;1093;51.424;11.764;2023-07-09T00:02:15;8.23;;;5.83;;
2173;SDS011;1093;51.424;11.764;2023-07-09T00:04:43;8.53;;;6.30;;
2173;SDS011;1093;51.424;11.764;2023-07-09T00:07:17;8.70;;;6.17;;
2173;SDS011;1093;51.424;11.764;2023-07-09T00:09:49;10.10;;;6.20;;
2173;SDS011;1093;51.424;11.764;2023-07-09T00:12:22;6.27;;;4.93;;
2173;SDS011;1093;51.424;11.764;2023-07-09T00:14:58;7.20;;;6.03;;
2173;SDS011;1093;51.424;11.764;2023-07-09T00:17:27;8.30;;;6.10;;
2173;SDS011;1093;51.424;11.764;2023-07-09T00:19:59;9.03;;;6.40;;
2173;SDS011;1093;51.424;11.764;2023-07-09T00:22:28;9.23;;;6.00;;
2173;SDS011;1093;51.424;11.764;2023-07-09T00:25:00;7.37;;;5.43;;
2173;SDS011;1093;51.424;11.764;2023-07-09T00:27:30;8.53;;;5.93;;
2173;SDS011;1093;51.424;11.764;2023-07-09T00:30:00;12.03;;;6.33;;
2173;SDS011;1093;51.424;11.764;2023-07-09T00:32:29;7.67;;;5.87;;
2173;SDS011;1093;51.424;11.764;2023-07-09T00:35:00;8.47;;;6.27;;
2173;SDS011;1093;51.424;11.764;2023-07-09T00:37:31;9.37;;;6.07;;
2173;SDS011;1093;51.424;11.764;2023-07-09T00:39:58;9.73;;;7.10;;
2173;SDS011;1093;51.424;11.764;2023-07-09T00:42:25;9.00;;;6.10;;
2173;SDS011;1093;51.424;11.764;2023-07-09T00:44:54;7.90;;;6.60;;
2173;SDS011;1093;51.424;11.764;2023-07-09T00:47:23;9.10;;;7.20;;
2173;SDS011;1093;51.424;11.764;2023-07-09T00:50:03;9.80;;;6.13;;
2173;SDS011;1093;51.424;11.764;2023-07-09T00:52:49;10.60;;;7.70;;
2173;SDS011;1093;51.424;11.764;2023-07-09T00:55:19;8.93;;;7.23;;
2173;SDS011;1093;51.424;11.764;2023-07-09T00:57:49;10.53;;;6.63;;
2173;SDS011;1093;51.424;11.764;2023-07-09T01:00:24;9.97;;;6.87;;
2173;SDS011;1093;51.424;11.764;2023-07-09T01:02:54;13.13;;;7.27;;
2173;SDS011;1093;51.424;11.764;2023-07-09T01:05:23;11.20;;;6.77;;
2173;SDS011;1093;51.424;11.764;2023-07-09T01:07:50;11.17;;;7.07;;
2173;SDS011;1093;51.424;11.764;2023-07-09T01:10:18;10.00;;;6.93;;
2173;SDS011;1093;51.424;11.764;2023-07-09T01:12:46;8.97;;;7.20;;
2173;SDS011;1093;51.424;11.764;2023-07-09T01:15:16;9.87;;;6.90;;
2173;SDS011;1093;51.424;11.764;2023-07-09T01:17:45;12.77;;;6.40;;
2173;SDS011;1093;51.424;11.764;2023-07-09T01:20:18;10.73;;;6.70;;
2173;SDS011;1093;51.424;11.764;2023-07-09T01:22:50;9.30;;;6.40;;
2173;SDS011;1093;51.424;11.764;2023-07-09T01:25:20;7.80;;;6.23;;
2173;SDS011;1093;51.424;11.764;2023-07-09T01:27:47;11.30;;;6.43;;
2173;SDS011;1093;51.424;11.764;2023-07-09T01:30:16;9.00;;;7.13;;
2173;SDS011;1093;51.424;11.764;2023-07-09T01:32:47;8.30;;;6.07;;
2173;SDS011;1093;51.424;11.764;2023-07-09T01:35:16;11.60;;;7.07;;
2173;SDS011;1093;51.424;11.764;2023-07-09T01:37:45;7.50;;;6.70;;
2173;SDS011;1093;51.424;11.764;2023-07-09T01:40:14;9.37;;;6.70;;
2173;SDS011;1093;51.424;11.764;2023-07-09T01:42:44;34.00;;;7.50;;
2173;SDS011;1093;51.424;11.764;2023-07-09T01:45:12;9.40;;;8.03;;
2173;SDS011;1093;51.424;11.764;2023-07-09T01:47:40;11.57;;;7.43;;
2173;SDS011;1093;51.424;11.764;2023-07-09T01:50:09;10.03;;;6.53;;
2173;SDS011;1093;51.424;11.764;2023-07-09T01:52:37;10.47;;;6.80;;
2173;SDS011;1093;51.424;11.764;2023-07-09T01:55:06;9.70;;;6.60;;
2173;SDS011;1093;51.424;11.764;2023-07-09T01:57:36;12.23;;;7.63;;
2173;SDS011;1093;51.424;11.764;2023-07-09T02:00:08;13.33;;;8.47;;
2173;SDS011;1093;51.424;11.764;2023-07-09T02:02:38;9.33;;;7.17;;
2173;SDS011;1093;51.424;11.764;2023-07-09T02:05:08;9.43;;;8.37;;
2173;SDS011;1093;51.424;11.764;2023-07-09T02:07:35;13.33;;;6.80;;
2173;SDS011;1093;51.424;11.764;2023-07-09T02:10:02;11.63;;;8.00;;
2173;SDS011;1093;51.424;11.764;2023-07-09T02:12:29;12.90;;;8.07;;
2173;SDS011;1093;51.424;11.764;2023-07-09T02:14:57;10.97;;;7.60;;
2173;SDS011;1093;51.424;11.764;2023-07-09T02:17:24;10.93;;;7.77;;
2173;SDS011;1093;51.424;11.764;2023-07-09T02:19:50;9.07;;;8.00;;
2173;SDS011;1093;51.424;11.764;2023-07-09T02:22:17;11.90;;;7.73;;
2173;SDS011;1093;51.424;11.764;2023-07-09T02:24:45;12.10;;;7.93;;
2173;SDS011;1093;51.424;11.764;2023-07-09T02:27:14;14.67;;;8.67;;
2173;SDS011;1093;51.424;11.764;2023-07-09T02:29:45;15.53;;;8.67;;
2173;SDS011;1093;51.424;11.764;2023-07-09T02:32:19;15.73;;;8.23;;
2173;SDS011;1093;51.424;11.764;2023-07-09T02:34:48;11.50;;;7.33;;
2173;SDS011;1093;51.424;11.764;2023-07-09T02:37:17;13.10;;;7.80;;
2173;SDS011;1093;51.424;11.764;2023-07-09T02:39:45;13.93;;;8.00;;
2173;SDS011;1093;51.424;11.764;2023-07-09T02:42:13;9.67;;;7.43;;
2173;SDS011;1093;51.424;11.764;2023-07-09T02:44:41;13.33;;;7.37;;
2173;SDS011;1093;51.424;11.764;2023-07-09T02:47:09;12.87;;;9.00;;
2173;SDS011;1093;51.424;11.764;2023-07-09T02:49:38;14.83;;;7.93;;
2173;SDS011;1093;51.424;11.764;2023-07-09T02:52:05;11.33;;;8.53;;
2173;SDS011;1093;51.424;11.764;2023-07-09T02:54:32;11.53;;;7.57;;
2173;SDS011;1093;51.424;11.764;2023-07-09T02:56:59;16.53;;;8.93;;
2173;SDS011;1093;51.424;11.764;2023-07-09T02:59:26;12.70;;;8.30;;
2173;SDS011;1093;51.424;11.764;2023-07-09T03:01:55;12.87;;;8.10;;
2173;SDS011;1093;51.424;11.764;2023-07-09T03:04:22;9.80;;;8.40;;
2173;SDS011;1093;51.424;11.764;2023-07-09T03:06:50;16.13;;;8.70;;
2173;SDS011;1093;51.424;11.764;2023-07-09T03:09:17;10.17;;;7.87;;
2173;SDS011;1093;51.424;11.764;2023-07-09T03:11:44;13.73;;;7.83;;
2173;SDS011;1093;51.424;11.764;2023-07-09T03:14:11;10.00;;;8.30;;
2173;SDS011;1093;51.424;11.764;2023-07-09T03:16:38;11.20;;;7.10;;
2173;SDS011;1093;51.424;11.764;2023-07-09T03:19:05;16.40;;;7.70;;
2173;SDS011;1093;51.424;11.764;2023-07-09T03:21:33;11.20;;;7.70;;
2173;SDS011;1093;51.424;11.764;2023-07-09T03:24:03;11.30;;;7.87;;
2173;SDS011;1093;51.424;11.764;2023-07-09T03:26:30;13.60;;;8.90;;
2173;SDS011;1093;51.424;11.764;2023-07-09T03:28:58;14.87;;;8.30;;
2173;SDS011;1093;51.424;11.764;2023-07-09T03:31:24;17.33;;;8.17;;
2173;SDS011;1093;51.424;11.764;2023-07-09T03:33:51;11.93;;;7.53;;
2173;SDS011;1093;51.424;11.764;2023-07-09T03:36:18;12.10;;;9.10;;
2173;SDS011;1093;51.424;11.764;2023-07-09T03:38:45;12.63;;;8.20;;
2173;SDS011;1093;51.424;11.764;2023-07-09T03:41:13;12.57;;;9.40;;
2173;SDS011;1093;51.424;11.764;2023-07-09T03:43:40;12.13;;;8.30;;
2173;SDS011;1093;51.424;11.764;2023-07-09T03:46:07;11.30;;;9.50;;
2173;SDS011;1093;51.424;11.764;2023-07-09T03:48:33;12.13;;;8.53;;
2173;SDS011;1093;51.424;11.764;2023-07-09T03:51:00;12.40;;;9.40;;
2173;SDS011;1093;51.424;11.764;2023-07-09T03:53:26;12.27;;;9.70;;
2173;SDS011;1093;51.424;11.764;2023-07-09T03:55:54;13.23;;;8.00;;
2173;SDS011;1093;51.424;11.764;2023-07-09T03:58:23;11.97;;;9.20;;
2173;SDS011;1093;51.424;11.764;2023-07-09T04:00:50;15.07;;;8.60;;
2173;SDS011;1093;51.424;11.764;2023-07-09T04:03:17;13.07;;;10.13;;
2173;SDS011;1093;51.424;11.764;2023-07-09T04:05:43;11.80;;;9.23;;
2173;SDS011;1093;51.424;11.764;2023-07-09T04:08:10;13.37;;;10.37;;
2173;SDS011;1093;51.424;11.764;2023-07-09T04:10:37;14.70;;;10.23;;
2173;SDS011;1093;51.424;11.764;2023-07-09T04:13:03;12.77;;;9.43;;
2173;SDS011;1093;51.424;11.764;2023-07-09T04:15:31;15.13;;;9.20;;
2173;SDS011;1093;51.424;11.764;2023-07-09T04:17:58;11.47;;;9.47;;
2173;SDS011;1093;51.424;11.764;2023-07-09T04:20:25;13.17;;;9.47;;
2173;SDS011;1093;51.424;11.764;2023-07-09T04:22:53;14.53;;;10.17;;
2173;SDS011;1093;51.424;11.764;2023-07-09T04:25:19;12.67;;;10.47;;
2173;SDS011;1093;51.424;11.764;2023-07-09T04:27:46;13.23;;;9.97;;
2173;SDS011;1093;51.424;11.764;2023-07-09T04:30:14;14.23;;;10.10;;
2173;SDS011;1093;51.424;11.764;2023-07-09T04:32:42;17.40;;;10.77;;
2173;SDS011;1093;51.424;11.764;2023-07-09T04:35:09;16.47;;;10.53;;
2173;SDS011;1093;51.424;11.764;2023-07-09T04:37:37;14.70;;;8.80;;
2173;SDS011;1093;51.424;11.764;2023-07-09T04:40:04;12.37;;;9.30;;
2173;SDS011;1093;51.424;11.764;2023-07-09T04:42:32;15.60;;;11.40;;
2173;SDS011;1093;51.424;11.764;2023-07-09T04:44:59;22.63;;;11.17;;
2173;SDS011;1093;51.424;11.764;2023-07-09T04:47:26;16.80;;;10.47;;
2173;SDS011;1093;51.424;11.764;2023-07-09T04:49:54;12.90;;;8.70;;
2173;SDS011;1093;51.424;11.764;2023-07-09T04:52:20;12.93;;;9.60;;
2173;SDS011;1093;51.424;11.764;2023-07-09T04:54:47;12.63;;;10.13;;
2173;SDS011;1093;51.424;11.764;2023-07-09T04:57:15;14.93;;;9.63;;
2173;SDS011;1093;51.424;11.764;2023-07-09T04:59:42;14.17;;;10.20;;
2173;SDS011;1093;51.424;11.764;2023-07-09T05:02:11;13.30;;;10.90;;
2173;SDS011;1093;51.424;11.764;2023-07-09T05:04:38;17.40;;;10.60;;
2173;SDS011;1093;51.424;11.764;2023-07-09T05:07:06;15.03;;;11.43;;
2173;SDS011;1093;51.424;11.764;2023-07-09T05:09:35;14.50;;;10.93;;
2173;SDS011;1093;51.424;11.764;2023-07-09T05:12:02;12.47;;;9.87;;
2173;SDS011;1093;51.424;11.764;2023-07-09T05:14:29;15.47;;;9.90;;
2173;SDS011;1093;51.424;11.764;2023-07-09T05:16:56;12.00;;;10.50;;
2173;SDS011;1093;51.424;11.764;2023-07-09T05:19:23;12.50;;;11.20;;
2173;SDS011;1093;51.424;11.764;2023-07-09T05:21:49;12.53;;;11.23;;
2173;SDS011;1093;51.424;11.764;2023-07-09T05:24:18;14.80;;;11.00;;
2173;SDS011;1093;51.424;11.764;2023-07-09T05:26:44;22.53;;;11.70;;
2173;SDS011;1093;51.424;11.764;2023-07-09T05:29:11;12.40;;;10.53;;
2173;SDS011;1093;51.424;11.764;2023-07-09T05:31:38;17.67;;;11.80;;
2173;SDS011;1093;51.424;11.764;2023-07-09T05:34:07;14.03;;;11.10;;
2173;SDS011;1093;51.424;11.764;2023-07-09T05:36:34;12.13;;;10.93;;
2173;SDS011;1093;51.424;11.764;2023-07-09T05:39:00;13.53;;;10.60;;
2173;SDS011;1093;51.424;11.764;2023-07-09T05:41:28;13.70;;;10.03;;
2173;SDS011;1093;51.424;11.764;2023-07-09T05:43:55;12.57;;;11.13;;
2173;SDS011;1093;51.424;11.764;2023-07-09T05:46:22;16.97;;;11.20;;
2173;SDS011;1093;51.424;11.764;2023-07-09T05:48:49;12.70;;;10.53;;
2173;SDS011;1093;51.424;11.764;2023-07-09T05:51:15;12.70;;;10.77;;
2173;SDS011;1093;51.424;11.764;2023-07-09T05:53:42;13.03;;;10.43;;
2173;SDS011;1093;51.424;11.764;2023-07-09T05:56:09;14.63;;;11.23;;
2173;SDS011;1093;51.424;11.764;2023-07-09T05:58:37;16.20;;;10.53;;
2173;SDS011;1093;51.424;11.764;2023-07-09T06:01:04;12.30;;;11.00;;
2173;SDS011;1093;51.424;11.764;2023-07-09T06:03:31;19.60;;;11.23;;
2173;SDS011;1093;51.424;11.764;2023-07-09T06:05:58;12.43;;;10.23;;
2173;SDS011;1093;51.424;11.764;2023-07-09T06:08:25;11.03;;;9.77;;
2173;SDS011;1093;51.424;11.764;2023-07-09T06:10:53;12.67;;;10.57;;
2173;SDS011;1093;51.424;11.764;2023-07-09T06:13:21;16.23;;;11.37;;
2173;SDS011;1093;51.424;11.764;2023-07-09T06:15:49;12.33;;;10.63;;
2173;SDS011;1093;51.424;11.764;2023-07-09T06:18:18;16.63;;;10.37;;
2173;SDS011;1093;51.424;11.764;2023-07-09T06:20:46;12.03;;;10.83;;
2173;SDS011;1093;51.424;11.764;2023-07-09T06:23:14;17.77;;;11.13;;
2173;SDS011;1093;51.424;11.764;2023-07-09T06:25:41;11.83;;;10.73;;
2173;SDS011;1093;51.424;11.764;2023-07-09T06:28:08;16.33;;;10.80;;
2173;SDS011;1093;51.424;11.764;2023-07-09T06:30:35;12.80;;;10.80;;
2173;SDS011;1093;51.424;11.764;2023-07-09T06:33:04;14.57;;;11.47;;
2173;SDS011;1093;51.424;11.764;2023-07-09T06:35:30;13.97;;;11.30;;
2173;SDS011;1093;51.424;11.764;2023-07-09T06:37:58;11.53;;;10.33;;
2173;SDS011;1093;51.424;11.764;2023-07-09T06:40:24;11.50;;;10.17;;
2173;SDS011;1093;51.424;11.764;2023-07-09T06:42:53;12.07;;;10.80;;
2173;SDS011;1093;51.424;11.764;2023-07-09T06:45:20;16.13;;;11.30;;
2173;SDS011;1093;51.424;11.764;2023-07-09T06:47:47;10.90;;;9.50;;
2173;SDS011;1093;51.424;11.764;2023-07-09T06:50:16;18.83;;;10.67;;
2173;SDS011;1093;51.424;11.764;2023-07-09T06:52:45;12.23;;;10.37;;
2173;SDS011;1093;51.424;11.764;2023-07-09T06:55:16;15.70;;;10.13;;
2173;SDS011;1093;51.424;11.764;2023-07-09T06:57:42;15.90;;;11.37;;
2173;SDS011;1093;51.424;11.764;2023-07-09T07:00:10;11.60;;;10.23;;
2173;SDS011;1093;51.424;11.764;2023-07-09T07:02:38;14.37;;;11.20;;
2173;SDS011;1093;51.424;11.764;2023-07-09T07:05:05;13.13;;;9.83;;
2173;SDS011;1093;51.424;11.764;2023-07-09T07:07:34;11.53;;;10.30;;
2173;SDS011;1093;51.424;11.764;2023-07-09T07:10:01;13.00;;;10.90;;
2173;SDS011;1093;51.424;11.764;2023-07-09T07:12:29;12.93;;;10.60;;
2173;SDS011;1093;51.424;11.764;2023-07-09T07:15:07;12.43;;;11.13;;
2173;SDS011;1093;51.424;11.764;2023-07-09T07:17:36;11.47;;;10.27;;
2173;SDS011;1093;51.424;11.764;2023-07-09T07:20:04;12.30;;;10.43;;
2173;SDS011;1093;51.424;11.764;2023-07-09T07:22:36;12.97;;;10.80;;
2173;SDS011;1093;51.424;11.764;2023-07-09T07:25:04;11.27;;;9.53;;
2173;SDS011;1093;51.424;11.764;2023-07-09T07:27:32;13.20;;;10.70;;
2173;SDS011;1093;51.424;11.764;2023-07-09T07:30:01;15.17;;;9.60;;
2173;SDS011;1093;51.424;11.764;2023-07-09T07:32:29;13.57;;;10.07;;
2173;SDS011;1093;51.424;11.764;2023-07-09T07:34:56;11.57;;;8.67;;
2173;SDS011;1093;51.424;11.764;2023-07-09T07:37:23;14.43;;;9.40;;
2173;SDS011;1093;51.424;11.764;2023-07-09T07:39:51;14.67;;;9.83;;
2173;SDS011;1093;51.424;11.764;2023-07-09T07:42:19;11.17;;;10.00;;
2173;SDS011;1093;51.424;11.764;2023-07-09T07:44:53;10.90;;;9.80;;
2173;SDS011;1093;51.424;11.764;2023-07-09T07:47:22;11.60;;;9.90;;
2173;SDS011;1093;51.424;11.764;2023-07-09T07:49:50;12.83;;;9.23;;
2173;SDS011;1093;51.424;11.764;2023-07-09T07:52:17;9.70;;;8.43;;
2173;SDS011;1093;51.424;11.764;2023-07-09T07:54:44;10.27;;;9.27;;
2173;SDS011;1093;51.424;11.764;2023-07-09T07:57:13;11.93;;;8.67;;
2173;SDS011;1093;51.424;11.764;2023-07-09T07:59:40;18.10;;;9.10;;
2173;SDS011;1093;51.424;11.764;2023-07-09T08:02:14;12.50;;;9.87;;
2173;SDS011;1093;51.424;11.764;2023-07-09T08:04:46;12.07;;;9.13;;
2173;SDS011;1093;51.424;11.764;2023-07-09T08:07:13;10.37;;;9.37;;
2173;SDS011;1093;51.424;11.764;2023-07-09T08:09:42;12.37;;;10.03;;
2173;SDS011;1093;51.424;11.764;2023-07-09T08:12:13;13.07;;;8.77;;
2173;SDS011;1093;51.424;11.764;2023-07-09T08:14:45;10.93;;;9.63;;
2173;SDS011;1093;51.424;11.764;2023-07-09T08:17:15;10.93;;;9.30;;
2173;SDS011;1093;51.424;11.764;2023-07-09T08:19:45;10.40;;;9.03;;
2173;SDS011;1093;51.424;11.764;2023-07-09T08:22:13;16.00;;;10.10;;
2173;SDS011;1093;51.424;11.764;2023-07-09T08:24:48;11.23;;;8.77;;
2173;SDS011;1093;51.424;11.764;2023-07-09T08:27:21;11.77;;;10.10;;
2173;SDS011;1093;51.424;11.764;2023-07-09T08:29:51;14.87;;;8.40;;
2173;SDS011;1093;51.424;11.764;2023-07-09T08:32:25;12.07;;;9.77;;
2173;SDS011;1093;51.424;11.764;2023-07-09T08:34:54;9.03;;;7.97;;
2173;SDS011;1093;51.424;11.764;2023-07-09T08:37:22;10.10;;;8.93;;
2173;SDS011;1093;51.424;11.764;2023-07-09T08:39:52;11.77;;;9.17;;
2173;SDS011;1093;51.424;11.764;2023-07-09T08:42:24;11.17;;;9.67;;
2173;SDS011;1093;51.424;11.764;2023-07-09T08:45:03;11.13;;;8.23;;
2173;SDS011;1093;51.424;11.764;2023-07-09T08:47:52;11.47;;;9.30;;
2173;SDS011;1093;51.424;11.764;2023-07-09T08:50:32;8.27;;;7.47;;
2173;SDS011;1093;51.424;11.764;2023-07-09T08:53:05;9.90;;;8.00;;
2173;SDS011;1093;51.424;11.764;2023-07-09T08:55:49;11.60;;;8.70;;
2173;SDS011;1093;51.424;11.764;2023-07-09T08:58:27;8.73;;;7.83;;
2173;SDS011;1093;51.424;11.764;2023-07-09T09:01:00;13.03;;;8.90;;
2173;SDS011;1093;51.424;11.764;2023-07-09T09:03:34;15.13;;;7.97;;
2173;SDS011;1093;51.424;11.764;2023-07-09T09:06:10;20.30;;;8.13;;
2173;SDS011;1093;51.424;11.764;2023-07-09T09:08:49;9.27;;;7.63;;
2173;SDS011;1093;51.424;11.764;2023-07-09T09:11:37;8.77;;;7.87;;
2173;SDS011;1093;51.424;11.764;2023-07-09T09:14:22;11.23;;;9.70;;
2173;SDS011;1093;51.424;11.764;2023-07-09T09:16:54;9.40;;;8.40;;
2173;SDS011;1093;51.424;11.764;2023-07-09T09:19:25;12.00;;;8.80;;
2173;SDS011;1093;51.424;11.764;2023-07-09T09:22:01;10.57;;;8.27;;
2173;SDS011;1093;51.424;11.764;2023-07-09T09:24:35;12.50;;;8.73;;
2173;SDS011;1093;51.424;11.764;2023-07-09T09:27:13;12.20;;;7.70;;
2173;SDS011;1093;51.424;11.764;2023-07-09T09:29:44;9.43;;;8.37;;
2173;SDS011;1093;51.424;11.764;2023-07-09T09:32:18;11.43;;;8.70;;
2173;SDS011;1093;51.424;11.764;2023-07-09T09:34:55;11.63;;;8.73;;
2173;SDS011;1093;51.424;11.764;2023-07-09T09:37:24;10.17;;;7.87;;
2173;SDS011;1093;51.424;11.764;2023-07-09T09:39:58;11.30;;;7.50;;
2173;SDS011;1093;51.424;11.764;2023-07-09T09:42:29;7.50;;;6.80;;
2173;SDS011;1093;51.424;11.764;2023-07-09T09:45:01;8.43;;;7.50;;
2173;SDS011;1093;51.424;11.764;2023-07-09T09:47:29;8.73;;;7.43;;
2173;SDS011;1093;51.424;11.764;2023-07-09T09:50:01;7.40;;;6.70;;
2173;SDS011;1093;51.424;11.764;2023-07-09T09:52:30;8.13;;;6.53;;
2173;SDS011;1093;51.424;11.764;2023-07-09T09:55:02;7.37;;;6.57;;
2173;SDS011;1093;51.424;11.764;2023-07-09T09:57:35;38.70;;;10.07;;
2173;SDS011;1093;51.424;11.764;2023-07-09T10:03:01;7.63;;;6.83;;
2173;SDS011;1093;51.424;11.764;2023-07-09T10:05:31;10.03;;;7.60;;
2173;SDS011;1093;51.424;11.764;2023-07-09T10:08:09;8.07;;;7.20;;
2173;SDS011;1093;51.424;11.764;2023-07-09T10:10:46;7.27;;;6.13;;
2173;SDS011;1093;51.424;11.764;2023-07-09T10:13:15;6.83;;;6.13;;
2173;SDS011;1093;51.424;11.764;2023-07-09T10:15:58;9.03;;;6.73;;
2173;SDS011;1093;51.424;11.764;2023-07-09T10:18:35;7.87;;;6.93;;
2173;SDS011;1093;51.424;11.764;2023-07-09T10:21:15;7.00;;;5.90;;
2173;SDS011;1093;51.424;11.764;2023-07-09T10:23:56;11.87;;;6.57;;
2173;SDS011;1093;51.424;11.764;2023-07-09T10:26:35;11.30;;;6.73;;
2173;SDS011;1093;51.424;11.764;2023-07-09T10:32:13;10.23;;;6.60;;
2173;SDS011;1093;51.424;11.764;2023-07-09T10:34:53;8.50;;;6.43;;
2173;SDS011;1093;51.424;11.764;2023-07-09T10:40:17;8.53;;;7.70;;
2173;SDS011;1093;51.424;11.764;2023-07-09T10:42:57;10.13;;;6.33;;
2173;SDS011;1093;51.424;11.764;2023-07-09T10:45:29;7.10;;;6.50;;
2173;SDS011;1093;51.424;11.764;2023-07-09T10:48:06;11.13;;;6.23;;
2173;SDS011;1093;51.424;11.764;2023-07-09T10:50:41;8.23;;;7.27;;
2173;SDS011;1093;51.424;11.764;2023-07-09T10:53:23;10.10;;;6.93;;
2173;SDS011;1093;51.424;11.764;2023-07-09T10:55:58;7.03;;;6.43;;
2173;SDS011;1093;51.424;11.764;2023-07-09T10:58:33;9.73;;;7.90;;
2173;SDS011;1093;51.424;11.764;2023-07-09T11:01:10;8.20;;;7.23;;
2173;SDS011;1093;51.424;11.764;2023-07-09T11:03:50;8.73;;;7.57;;
2173;SDS011;1093;51.424;11.764;2023-07-09T11:06:25;9.57;;;6.93;;
2173;SDS011;1093;51.424;11.764;2023-07-09T11:09:02;10.03;;;8.07;;
2173;SDS011;1093;51.424;11.764;2023-07-09T11:11:33;8.33;;;6.90;;
2173;SDS011;1093;51.424;11.764;2023-07-09T11:14:19;7.20;;;6.50;;
2173;SDS011;1093;51.424;11.764;2023-07-09T11:16:55;9.90;;;6.67;;
2173;SDS011;1093;51.424;11.764;2023-07-09T11:19:31;8.27;;;7.13;;
2173;SDS011;1093;51.424;11.764;2023-07-09T11:22:15;10.23;;;9.00;;
2173;SDS011;1093;51.424;11.764;2023-07-09T11:24:50;7.57;;;6.30;;
2173;SDS011;1093;51.424;11.764;2023-07-09T11:27:22;10.33;;;7.30;;
2173;SDS011;1093;51.424;11.764;2023-07-09T11:29:59;8.97;;;7.10;;
2173;SDS011;1093;51.424;11.764;2023-07-09T11:32:30;10.30;;;7.13;;
2173;SDS011;1093;51.424;11.764;2023-07-09T11:35:09;8.93;;;7.37;;
2173;SDS011;1093;51.424;11.764;2023-07-09T11:37:49;7.90;;;7.10;;
2173;SDS011;1093;51.424;11.764;2023-07-09T11:40:25;8.13;;;7.33;;
2173;SDS011;1093;51.424;11.764;2023-07-09T11:42:53;8.70;;;7.73;;
2173;SDS011;1093;51.424;11.764;2023-07-09T11:45:28;16.73;;;7.40;;
2173;SDS011;1093;51.424;11.764;2023-07-09T11:47:59;9.17;;;7.07;;
2173;SDS011;1093;51.424;11.764;2023-07-09T11:50:57;8.33;;;7.37;;
2173;SDS011;1093;51.424;11.764;2023-07-09T11:53:29;24.00;;;8.80;;
2173;SDS011;1093;51.424;11.764;2023-07-09T11:56:24;13.40;;;6.30;;
2173;SDS011;1093;51.424;11.764;2023-07-09T11:58:57;8.73;;;7.83;;
2173;SDS011;1093;51.424;11.764;2023-07-09T12:01:33;7.90;;;7.00;;
2173;SDS011;1093;51.424;11.764;2023-07-09T12:04:07;10.77;;;7.37;;
2173;SDS011;1093;51.424;11.764;2023-07-09T12:06:45;9.80;;;7.17;;
2173;SDS011;1093;51.424;11.764;2023-07-09T12:09:18;28.27;;;8.40;;
2173;SDS011;1093;51.424;11.764;2023-07-09T12:11:58;8.30;;;6.90;;
2173;SDS011;1093;51.424;11.764;2023-07-09T12:14:28;7.40;;;6.60;;
2173;SDS011;1093;51.424;11.764;2023-07-09T12:16:55;8.50;;;6.77;;
2173;SDS011;1093;51.424;11.764;2023-07-09T12:19:24;9.67;;;7.60;;
2173;SDS011;1093;51.424;11.764;2023-07-09T12:21:59;10.57;;;7.20;;
2173;SDS011;1093;51.424;11.764;2023-07-09T12:24:36;8.53;;;6.27;;
2173;SDS011;1093;51.424;11.764;2023-07-09T12:27:16;8.80;;;6.80;;
2173;SDS011;1093;51.424;11.764;2023-07-09T12:29:49;7.33;;;6.47;;
2173;SDS011;1093;51.424;11.764;2023-07-09T12:32:25;11.17;;;7.00;;
2173;SDS011;1093;51.424;11.764;2023-07-09T12:34:57;7.70;;;7.00;;
2173;SDS011;1093;51.424;11.764;2023-07-09T12:40:16;12.03;;;6.67;;
2173;SDS011;1093;51.424;11.764;2023-07-09T12:42:47;11.53;;;7.30;;
2173;SDS011;1093;51.424;11.764;2023-07-09T12:45:17;18.50;;;8.00;;
2173;SDS011;1093;51.424;11.764;2023-07-09T12:47:47;10.10;;;6.60;;
2173;SDS011;1093;51.424;11.764;2023-07-09T12:50:27;10.00;;;7.63;;
2173;SDS011;1093;51.424;11.764;2023-07-09T12:53:11;10.17;;;7.50;;
2173;SDS011;1093;51.424;11.764;2023-07-09T12:55:44;9.13;;;8.20;;
2173;SDS011;1093;51.424;11.764;2023-07-09T12:58:16;9.63;;;6.57;;
2173;SDS011;1093;51.424;11.764;2023-07-09T13:00:50;8.40;;;6.63;;
2173;SDS011;1093;51.424;11.764;2023-07-09T13:03:31;9.87;;;7.13;;
2173;SDS011;1093;51.424;11.764;2023-07-09T13:06:24;8.70;;;7.03;;
2173;SDS011;1093;51.424;11.764;2023-07-09T13:09:11;8.10;;;7.30;;
2173;SDS011;1093;51.424;11.764;2023-07-09T13:11:47;9.97;;;6.60;;
2173;SDS011;1093;51.424;11.764;2023-07-09T13:14:18;14.50;;;6.60;;
2173;SDS011;1093;51.424;11.764;2023-07-09T13:16:50;10.27;;;7.17;;
2173;SDS011;1093;51.424;11.764;2023-07-09T13:19:20;15.00;;;8.07;;
2173;SDS011;1093;51.424;11.764;2023-07-09T13:21:54;10.33;;;7.77;;
2173;SDS011;1093;51.424;11.764;2023-07-09T13:24:28;21.73;;;7.13;;
2173;SDS011;1093;51.424;11.764;2023-07-09T13:26:59;8.40;;;7.53;;
2173;SDS011;1093;51.424;11.764;2023-07-09T13:29:30;10.83;;;7.20;;
2173;SDS011;1093;51.424;11.764;2023-07-09T13:31:59;8.27;;;6.43;;
2173;SDS011;1093;51.424;11.764;2023-07-09T13:34:30;8.40;;;7.07;;
2173;SDS011;1093;51.424;11.764;2023-07-09T13:37:02;7.87;;;6.83;;
2173;SDS011;1093;51.424;11.764;2023-07-09T13:42:16;7.93;;;7.10;;
2173;SDS011;1093;51.424;11.764;2023-07-09T13:44:44;7.40;;;6.57;;
2173;SDS011;1093;51.424;11.764;2023-07-09T13:47:18;9.47;;;7.57;;
2173;SDS011;1093;51.424;11.764;2023-07-09T13:49:46;10.03;;;7.90;;
2173;SDS011;1093;51.424;11.764;2023-07-09T13:52:16;8.83;;;7.47;;
2173;SDS011;1093;51.424;11.764;2023-07-09T13:54:52;7.97;;;7.17;;
2173;SDS011;1093;51.424;11.764;2023-07-09T13:57:20;10.37;;;7.77;;
2173;SDS011;1093;51.424;11.764;2023-07-09T14:00:04;8.30;;;7.53;;
2173;SDS011;1093;51.424;11.764;2023-07-09T14:02:37;7.27;;;6.57;;
2173;SDS011;1093;51.424;11.764;2023-07-09T14:05:08;8.77;;;7.23;;
2173;SDS011;1093;51.424;11.764;2023-07-09T14:07:39;9.30;;;8.33;;
2173;SDS011;1093;51.424;11.764;2023-07-09T14:10:17;9.63;;;6.90;;
2173;SDS011;1093;51.424;11.764;2023-07-09T14:12:48;9.00;;;6.97;;
2173;SDS011;1093;51.424;11.764;2023-07-09T14:15:19;8.20;;;7.17;;
2173;SDS011;1093;51.424;11.764;2023-07-09T14:17:50;7.93;;;6.80;;
2173;SDS011;1093;51.424;11.764;2023-07-09T14:20:20;8.20;;;7.20;;
2173;SDS011;1093;51.424;11.764;2023-07-09T14:22:57;10.10;;;7.70;;
2173;SDS011;1093;51.424;11.764;2023-07-09T14:25:40;9.17;;;6.90;;
2173;SDS011;1093;51.424;11.764;2023-07-09T14:28:12;8.63;;;7.03;;
2173;SDS011;1093;51.424;11.764;2023-07-09T14:30:42;8.80;;;7.90;;
2173;SDS011;1093;51.424;11.764;2023-07-09T14:33:12;6.90;;;6.20;;
2173;SDS011;1093;51.424;11.764;2023-07-09T14:35:42;11.13;;;8.13;;
2173;SDS011;1093;51.424;11.764;2023-07-09T14:38:14;9.40;;;7.93;;
2173;SDS011;1093;51.424;11.764;2023-07-09T14:40:46;8.67;;;7.73;;
2173;SDS011;1093;51.424;11.764;2023-07-09T14:43:18;8.77;;;7.90;;
2173;SDS011;1093;51.424;11.764;2023-07-09T14:45:49;7.60;;;6.80;;
2173;SDS011;1093;51.424;11.764;2023-07-09T14:48:19;10.87;;;7.77;;
2173;SDS011;1093;51.424;11.764;2023-07-09T14:50:49;12.00;;;7.00;;
2173;SDS011;1093;51.424;11.764;2023-07-09T14:53:18;9.67;;;7.93;;
2173;SDS011;1093;51.424;11.764;2023-07-09T14:55:52;11.40;;;7.33;;
2173;SDS011;1093;51.424;11.764;2023-07-09T14:58:23;8.03;;;7.23;;
2173;SDS011;1093;51.424;11.764;2023-07-09T15:00:51;9.00;;;7.87;;
2173;SDS011;1093;51.424;11.764;2023-07-09T15:03:21;8.37;;;7.50;;
2173;SDS011;1093;51.424;11.764;2023-07-09T15:05:51;10.17;;;7.80;;
2173;SDS011;1093;51.424;11.764;2023-07-09T15:08:30;9.40;;;7.80;;
2173;SDS011;1093;51.424;11.764;2023-07-09T15:11:00;8.73;;;7.53;;
2173;SDS011;1093;51.424;11.764;2023-07-09T15:13:29;7.93;;;7.13;;
2173;SDS011;1093;51.424;11.764;2023-07-09T15:15:58;10.60;;;7.83;;
2173;SDS011;1093;51.424;11.764;2023-07-09T15:18:42;9.90;;;7.93;;
2173;SDS011;1093;51.424;11.764;2023-07-09T15:21:13;13.23;;;8.50;;
2173;SDS011;1093;51.424;11.764;2023-07-09T15:23:43;9.93;;;8.23;;
2173;SDS011;1093;51.424;11.764;2023-07-09T15:26:20;9.57;;;8.23;;
2173;SDS011;1093;51.424;11.764;2023-07-09T15:28:55;7.87;;;7.03;;